sensor_id;sensor_type;location;lat;lon;timestamp;P1;durP1;ratioP1;P2;durP2;ratioP2
15841;SDS011;8021;48.022;11.812;2023-04-25T00:01:13;0.40;;;0.40;;
15841;SDS011;8021;48.022;11.812;2023-04-25T00:03:40;0.40;;;0.40;;
15841;SDS011;8021;48.022;11.812;2023-04-25T00:06:08;0.40;;;0.40;;
15841;SDS011;8021;48.022;11.812;2023-04-25T00:08:36;0.40;;;0.40;;
15841;SDS011;8021;48.022;11.812;2023-04-25T00:11:03;0.40;;;0.40;;
15841;SDS011;8021;48.022;11.812;2023-04-25T00:13:32;0.40;;;0.40;;
15841;SDS011;8021;48.022;11.812;2023-04-25T00:16:00;0.40;;;0.40;;
15841;SDS011;8021;48.022;11.812;2023-04-25T00:18:28;0.40;;;0.40;;
15841;SDS011;8021;48.022;11.812;2023-04-25T00:20:56;0.40;;;0.40;;
15841;SDS011;8021;48.022;11.812;2023-04-25T00:23:23;0.40;;;0.40;;
15841;SDS011;8021;48.022;11.812;2023-04-25T00:25:51;0.40;;;0.40;;
15841;SDS011;8021;48.022;11.812;2023-04-25T00:28:18;0.40;;;0.40;;
15841;SDS011;8021;48.022;11.812;2023-04-25T00:30:47;0.50;;;0.50;;
15841;SDS011;8021;48.022;11.812;2023-04-25T00:33:14;0.40;;;0.40;;
15841;SDS011;8021;48.022;11.812;2023-04-25T00:35:42;0.40;;;0.40;;
15841;SDS011;8021;48.022;11.812;2023-04-25T00:38:09;0.40;;;0.40;;
15841;SDS011;8021;48.022;11.812;2023-04-25T00:40:37;0.50;;;0.50;;
15841;SDS011;8021;48.022;11.812;2023-04-25T00:43:04;0.35;;;0.35;;
15841;SDS011;8021;48.022;11.812;2023-04-25T00:45:32;0.50;;;0.50;;
15841;SDS011;8021;48.022;11.812;2023-04-25T00:48:03;0.40;;;0.40;;
15841;SDS011;8021;48.022;11.812;2023-04-25T00:50:32;0.50;;;0.50;;
15841;SDS011;8021;48.022;11.812;2023-04-25T00:53:00;0.47;;;0.47;;
15841;SDS011;8021;48.022;11.812;2023-04-25T00:55:29;0.32;;;0.32;;
15841;SDS011;8021;48.022;11.812;2023-04-25T00:57:57;0.40;;;0.40;;
15841;SDS011;8021;48.022;11.812;2023-04-25T01:00:26;0.50;;;0.50;;
15841;SDS011;8021;48.022;11.812;2023-04-25T01:02:53;0.50;;;0.50;;
15841;SDS011;8021;48.022;11.812;2023-04-25T01:05:22;0.50;;;0.50;;
15841;SDS011;8021;48.022;11.812;2023-04-25T01:07:50;0.50;;;0.50;;
15841;SDS011;8021;48.022;11.812;2023-04-25T01:10:17;0.50;;;0.50;;
15841;SDS011;8021;48.022;11.812;2023-04-25T01:12:45;0.40;;;0.40;;
15841;SDS011;8021;48.022;11.812;2023-04-25T01:15:12;0.40;;;0.40;;
15841;SDS011;8021;48.022;11.812;2023-04-25T01:17:40;0.50;;;0.50;;
15841;SDS011;8021;48.022;11.812;2023-04-25T01:20:09;0.40;;;0.40;;
15841;SDS011;8021;48.022;11.812;2023-04-25T01:22:39;0.50;;;0.50;;
15841;SDS011;8021;48.022;11.812;2023-04-25T01:25:07;0.38;;;0.38;;
15841;SDS011;8021;48.022;11.812;2023-04-25T01:27:35;0.30;;;0.30;;
15841;SDS011;8021;48.022;11.812;2023-04-25T01:30:03;0.40;;;0.40;;
15841;SDS011;8021;48.022;11.812;2023-04-25T01:32:34;0.50;;;0.50;;
15841;SDS011;8021;48.022;11.812;2023-04-25T01:35:05;0.57;;;0.57;;
15841;SDS011;8021;48.022;11.812;2023-04-25T01:37:35;0.47;;;0.47;;
15841;SDS011;8021;48.022;11.812;2023-04-25T01:40:05;0.50;;;0.50;;
15841;SDS011;8021;48.022;11.812;2023-04-25T01:42:34;0.35;;;0.35;;
15841;SDS011;8021;48.022;11.812;2023-04-25T01:45:02;0.40;;;0.40;;
15841;SDS011;8021;48.022;11.812;2023-04-25T01:47:29;0.40;;;0.40;;
15841;SDS011;8021;48.022;11.812;2023-04-25T01:49:58;0.40;;;0.40;;
15841;SDS011;8021;48.022;11.812;2023-04-25T01:52:26;0.40;;;0.40;;
15841;SDS011;8021;48.022;11.812;2023-04-25T01:54:53;0.40;;;0.40;;
15841;SDS011;8021;48.022;11.812;2023-04-25T01:57:23;0.50;;;0.50;;
15841;SDS011;8021;48.022;11.812;2023-04-25T01:59:50;0.43;;;0.43;;
15841;SDS011;8021;48.022;11.812;2023-04-25T02:02:37;0.40;;;0.40;;
15841;SDS011;8021;48.022;11.812;2023-04-25T02:05:13;0.47;;;0.47;;
15841;SDS011;8021;48.022;11.812;2023-04-25T02:07:42;0.40;;;0.40;;
15841;SDS011;8021;48.022;11.812;2023-04-25T02:10:09;0.45;;;0.45;;
15841;SDS011;8021;48.022;11.812;2023-04-25T02:12:50;0.38;;;0.38;;
15841;SDS011;8021;48.022;11.812;2023-04-25T02:15:23;0.50;;;0.50;;
15841;SDS011;8021;48.022;11.812;2023-04-25T02:17:55;0.40;;;0.40;;
15841;SDS011;8021;48.022;11.812;2023-04-25T02:20:23;0.50;;;0.50;;
15841;SDS011;8021;48.022;11.812;2023-04-25T02:22:50;0.50;;;0.50;;
15841;SDS011;8021;48.022;11.812;2023-04-25T02:25:19;0.45;;;0.45;;
15841;SDS011;8021;48.022;11.812;2023-04-25T02:27:47;0.40;;;0.40;;
15841;SDS011;8021;48.022;11.812;2023-04-25T02:30:16;0.47;;;0.47;;
15841;SDS011;8021;48.022;11.812;2023-04-25T02:32:44;0.45;;;0.45;;
15841;SDS011;8021;48.022;11.812;2023-04-25T02:35:11;0.52;;;0.52;;
15841;SDS011;8021;48.022;11.812;2023-04-25T02:37:39;0.50;;;0.50;;
15841;SDS011;8021;48.022;11.812;2023-04-25T02:40:07;0.40;;;0.40;;
15841;SDS011;8021;48.022;11.812;2023-04-25T02:42:35;0.50;;;0.50;;
15841;SDS011;8021;48.022;11.812;2023-04-25T02:45:03;0.40;;;0.40;;
15841;SDS011;8021;48.022;11.812;2023-04-25T02:47:32;0.40;;;0.40;;
15841;SDS011;8021;48.022;11.812;2023-04-25T02:50:00;0.40;;;0.40;;
15841;SDS011;8021;48.022;11.812;2023-04-25T02:52:28;0.47;;;0.47;;
15841;SDS011;8021;48.022;11.812;2023-04-25T02:55:04;0.40;;;0.40;;
15841;SDS011;8021;48.022;11.812;2023-04-25T02:57:33;0.50;;;0.50;;
15841;SDS011;8021;48.022;11.812;2023-04-25T03:00:01;0.40;;;0.40;;
15841;SDS011;8021;48.022;11.812;2023-04-25T03:02:28;0.60;;;0.60;;
15841;SDS011;8021;48.022;11.812;2023-04-25T03:04:57;0.43;;;0.43;;
15841;SDS011;8021;48.022;11.812;2023-04-25T03:07:26;0.60;;;0.60;;
15841;SDS011;8021;48.022;11.812;2023-04-25T03:09:53;0.38;;;0.38;;
15841;SDS011;8021;48.022;11.812;2023-04-25T03:12:22;0.45;;;0.45;;
15841;SDS011;8021;48.022;11.812;2023-04-25T03:14:50;0.40;;;0.40;;
15841;SDS011;8021;48.022;11.812;2023-04-25T03:17:17;0.40;;;0.40;;
15841;SDS011;8021;48.022;11.812;2023-04-25T03:19:48;0.40;;;0.40;;
15841;SDS011;8021;48.022;11.812;2023-04-25T03:22:17;0.38;;;0.38;;
15841;SDS011;8021;48.022;11.812;2023-04-25T03:24:44;0.32;;;0.32;;
15841;SDS011;8021;48.022;11.812;2023-04-25T03:27:13;0.40;;;0.40;;
15841;SDS011;8021;48.022;11.812;2023-04-25T03:29:40;0.40;;;0.40;;
15841;SDS011;8021;48.022;11.812;2023-04-25T03:32:08;0.40;;;0.40;;
15841;SDS011;8021;48.022;11.812;2023-04-25T03:34:36;0.40;;;0.40;;
15841;SDS011;8021;48.022;11.812;2023-04-25T03:37:03;0.40;;;0.40;;
15841;SDS011;8021;48.022;11.812;2023-04-25T03:39:37;0.38;;;0.38;;
15841;SDS011;8021;48.022;11.812;2023-04-25T03:42:05;0.50;;;0.50;;
15841;SDS011;8021;48.022;11.812;2023-04-25T03:44:33;0.50;;;0.50;;
15841;SDS011;8021;48.022;11.812;2023-04-25T03:47:01;0.40;;;0.40;;
15841;SDS011;8021;48.022;11.812;2023-04-25T03:49:29;0.40;;;0.40;;
15841;SDS011;8021;48.022;11.812;2023-04-25T03:52:00;0.40;;;0.40;;
15841;SDS011;8021;48.022;11.812;2023-04-25T03:54:33;0.50;;;0.50;;
15841;SDS011;8021;48.022;11.812;2023-04-25T03:57:09;0.50;;;0.50;;
15841;SDS011;8021;48.022;11.812;2023-04-25T03:59:38;0.40;;;0.40;;
15841;SDS011;8021;48.022;11.812;2023-04-25T04:02:08;0.30;;;0.30;;
15841;SDS011;8021;48.022;11.812;2023-04-25T04:04:36;0.40;;;0.40;;
15841;SDS011;8021;48.022;11.812;2023-04-25T04:07:05;0.30;;;0.30;;
15841;SDS011;8021;48.022;11.812;2023-04-25T04:09:35;0.50;;;0.50;;
15841;SDS011;8021;48.022;11.812;2023-04-25T04:12:08;0.40;;;0.40;;
15841;SDS011;8021;48.022;11.812;2023-04-25T04:14:39;0.40;;;0.40;;
15841;SDS011;8021;48.022;11.812;2023-04-25T04:17:07;0.30;;;0.30;;
15841;SDS011;8021;48.022;11.812;2023-04-25T04:19:35;0.43;;;0.43;;
15841;SDS011;8021;48.022;11.812;2023-04-25T04:22:12;0.50;;;0.50;;
15841;SDS011;8021;48.022;11.812;2023-04-25T04:24:40;0.30;;;0.30;;
15841;SDS011;8021;48.022;11.812;2023-04-25T04:27:12;0.40;;;0.40;;
15841;SDS011;8021;48.022;11.812;2023-04-25T04:29:58;0.30;;;0.30;;
15841;SDS011;8021;48.022;11.812;2023-04-25T04:32:37;0.50;;;0.50;;
15841;SDS011;8021;48.022;11.812;2023-04-25T04:35:05;0.50;;;0.50;;
15841;SDS011;8021;48.022;11.812;2023-04-25T04:37:33;0.40;;;0.40;;
15841;SDS011;8021;48.022;11.812;2023-04-25T04:40:01;0.40;;;0.40;;
15841;SDS011;8021;48.022;11.812;2023-04-25T04:42:52;0.40;;;0.40;;
15841;SDS011;8021;48.022;11.812;2023-04-25T04:45:38;0.40;;;0.40;;
15841;SDS011;8021;48.022;11.812;2023-04-25T04:48:16;0.40;;;0.40;;
15841;SDS011;8021;48.022;11.812;2023-04-25T04:50:54;0.35;;;0.35;;
15841;SDS011;8021;48.022;11.812;2023-04-25T04:53:37;0.30;;;0.30;;
15841;SDS011;8021;48.022;11.812;2023-04-25T04:56:19;0.40;;;0.40;;
15841;SDS011;8021;48.022;11.812;2023-04-25T04:58:55;0.40;;;0.40;;
15841;SDS011;8021;48.022;11.812;2023-04-25T05:01:42;0.40;;;0.40;;
15841;SDS011;8021;48.022;11.812;2023-04-25T05:04:16;0.30;;;0.30;;
15841;SDS011;8021;48.022;11.812;2023-04-25T05:07:03;0.32;;;0.32;;
15841;SDS011;8021;48.022;11.812;2023-04-25T05:09:30;0.40;;;0.40;;
15841;SDS011;8021;48.022;11.812;2023-04-25T05:12:21;0.40;;;0.40;;
15841;SDS011;8021;48.022;11.812;2023-04-25T05:14:50;0.38;;;0.38;;
15841;SDS011;8021;48.022;11.812;2023-04-25T05:17:36;0.45;;;0.45;;
15841;SDS011;8021;48.022;11.812;2023-04-25T05:20:11;0.30;;;0.30;;
15841;SDS011;8021;48.022;11.812;2023-04-25T05:22:59;0.40;;;0.40;;
15841;SDS011;8021;48.022;11.812;2023-04-25T05:25:56;0.40;;;0.40;;
15841;SDS011;8021;48.022;11.812;2023-04-25T05:28:33;0.40;;;0.40;;
15841;SDS011;8021;48.022;11.812;2023-04-25T05:31:11;0.40;;;0.40;;
15841;SDS011;8021;48.022;11.812;2023-04-25T05:33:57;0.38;;;0.38;;
15841;SDS011;8021;48.022;11.812;2023-04-25T05:36:34;0.30;;;0.30;;
15841;SDS011;8021;48.022;11.812;2023-04-25T05:39:02;0.35;;;0.35;;
15841;SDS011;8021;48.022;11.812;2023-04-25T05:41:49;0.32;;;0.32;;
15841;SDS011;8021;48.022;11.812;2023-04-25T05:44:35;0.40;;;0.40;;
15841;SDS011;8021;48.022;11.812;2023-04-25T05:47:19;0.40;;;0.40;;
15841;SDS011;8021;48.022;11.812;2023-04-25T05:49:59;0.40;;;0.40;;
15841;SDS011;8021;48.022;11.812;2023-04-25T05:52:45;0.30;;;0.25;;
15841;SDS011;8021;48.022;11.812;2023-04-25T05:55:31;0.30;;;0.22;;
15841;SDS011;8021;48.022;11.812;2023-04-25T05:58:01;0.30;;;0.30;;
15841;SDS011;8021;48.022;11.812;2023-04-25T06:00:29;0.30;;;0.25;;
15841;SDS011;8021;48.022;11.812;2023-04-25T06:02:58;0.28;;;0.22;;
15841;SDS011;8021;48.022;11.812;2023-04-25T06:05:26;0.30;;;0.30;;
15841;SDS011;8021;48.022;11.812;2023-04-25T06:07:53;0.30;;;0.30;;
15841;SDS011;8021;48.022;11.812;2023-04-25T06:10:21;0.28;;;0.28;;
15841;SDS011;8021;48.022;11.812;2023-04-25T06:12:49;0.30;;;0.30;;
15841;SDS011;8021;48.022;11.812;2023-04-25T06:15:19;0.30;;;0.30;;
15841;SDS011;8021;48.022;11.812;2023-04-25T06:17:54;0.30;;;0.30;;
15841;SDS011;8021;48.022;11.812;2023-04-25T06:20:24;0.30;;;0.25;;
15841;SDS011;8021;48.022;11.812;2023-04-25T06:22:54;0.20;;;0.20;;
15841;SDS011;8021;48.022;11.812;2023-04-25T06:25:34;0.20;;;0.10;;
15841;SDS011;8021;48.022;11.812;2023-04-25T06:28:02;0.20;;;0.10;;
15841;SDS011;8021;48.022;11.812;2023-04-25T06:30:30;0.20;;;0.20;;
15841;SDS011;8021;48.022;11.812;2023-04-25T06:33:05;0.17;;;0.10;;
15841;SDS011;8021;48.022;11.812;2023-04-25T06:35:35;0.10;;;0.10;;
15841;SDS011;8021;48.022;11.812;2023-04-25T06:38:05;0.20;;;0.20;;
15841;SDS011;8021;48.022;11.812;2023-04-25T06:40:35;0.20;;;0.20;;
15841;SDS011;8021;48.022;11.812;2023-04-25T06:43:02;0.20;;;0.20;;
15841;SDS011;8021;48.022;11.812;2023-04-25T06:45:52;0.20;;;0.20;;
15841;SDS011;8021;48.022;11.812;2023-04-25T06:48:22;0.20;;;0.10;;
15841;SDS011;8021;48.022;11.812;2023-04-25T06:50:52;0.10;;;0.10;;
15841;SDS011;8021;48.022;11.812;2023-04-25T06:53:20;0.10;;;0.10;;
15841;SDS011;8021;48.022;11.812;2023-04-25T06:55:53;0.13;;;0.13;;
15841;SDS011;8021;48.022;11.812;2023-04-25T06:58:22;0.10;;;0.10;;
15841;SDS011;8021;48.022;11.812;2023-04-25T07:01:03;0.20;;;0.20;;
15841;SDS011;8021;48.022;11.812;2023-04-25T07:03:31;0.30;;;0.30;;
15841;SDS011;8021;48.022;11.812;2023-04-25T07:06:06;0.20;;;0.20;;
15841;SDS011;8021;48.022;11.812;2023-04-25T07:08:34;0.20;;;0.20;;
15841;SDS011;8021;48.022;11.812;2023-04-25T07:11:01;0.20;;;0.20;;
15841;SDS011;8021;48.022;11.812;2023-04-25T07:13:29;0.20;;;0.20;;
15841;SDS011;8021;48.022;11.812;2023-04-25T07:15:57;0.30;;;0.20;;
15841;SDS011;8021;48.022;11.812;2023-04-25T07:18:28;0.20;;;0.20;;
15841;SDS011;8021;48.022;11.812;2023-04-25T07:20:56;0.30;;;0.22;;
15841;SDS011;8021;48.022;11.812;2023-04-25T07:23:24;0.28;;;0.20;;
15841;SDS011;8021;48.022;11.812;2023-04-25T07:25:52;0.30;;;0.20;;
15841;SDS011;8021;48.022;11.812;2023-04-25T07:28:23;0.30;;;0.20;;
15841;SDS011;8021;48.022;11.812;2023-04-25T07:30:51;0.30;;;0.28;;
15841;SDS011;8021;48.022;11.812;2023-04-25T07:33:18;0.30;;;0.30;;
15841;SDS011;8021;48.022;11.812;2023-04-25T07:35:46;0.30;;;0.30;;
15841;SDS011;8021;48.022;11.812;2023-04-25T07:38:14;0.20;;;0.20;;
15841;SDS011;8021;48.022;11.812;2023-04-25T07:40:43;0.30;;;0.30;;
15841;SDS011;8021;48.022;11.812;2023-04-25T07:43:11;0.30;;;0.30;;
15841;SDS011;8021;48.022;11.812;2023-04-25T07:45:50;0.30;;;0.30;;
15841;SDS011;8021;48.022;11.812;2023-04-25T07:48:19;0.20;;;0.20;;
15841;SDS011;8021;48.022;11.812;2023-04-25T07:50:48;0.30;;;0.30;;
15841;SDS011;8021;48.022;11.812;2023-04-25T07:53:16;0.30;;;0.30;;
15841;SDS011;8021;48.022;11.812;2023-04-25T07:55:51;0.20;;;0.20;;
15841;SDS011;8021;48.022;11.812;2023-04-25T07:58:20;0.30;;;0.25;;
15841;SDS011;8021;48.022;11.812;2023-04-25T08:00:55;0.20;;;0.20;;
15841;SDS011;8021;48.022;11.812;2023-04-25T08:03:43;0.10;;;0.10;;
15841;SDS011;8021;48.022;11.812;2023-04-25T08:06:21;0.10;;;0.10;;
15841;SDS011;8021;48.022;11.812;2023-04-25T08:08:58;0.10;;;0.10;;
15841;SDS011;8021;48.022;11.812;2023-04-25T08:11:34;0.10;;;0.10;;
15841;SDS011;8021;48.022;11.812;2023-04-25T08:14:02;0.00;;;0.00;;
15841;SDS011;8021;48.022;11.812;2023-04-25T08:16:29;0.00;;;0.00;;
15841;SDS011;8021;48.022;11.812;2023-04-25T08:18:57;0.00;;;0.00;;
15841;SDS011;8021;48.022;11.812;2023-04-25T08:21:24;0.00;;;0.00;;
15841;SDS011;8021;48.022;11.812;2023-04-25T08:23:55;0.00;;;0.00;;
15841;SDS011;8021;48.022;11.812;2023-04-25T08:26:28;0.10;;;0.00;;
15841;SDS011;8021;48.022;11.812;2023-04-25T08:28:58;0.00;;;0.00;;
15841;SDS011;8021;48.022;11.812;2023-04-25T08:31:25;0.00;;;0.00;;
15841;SDS011;8021;48.022;11.812;2023-04-25T08:33:57;0.00;;;0.00;;
15841;SDS011;8021;48.022;11.812;2023-04-25T08:36:35;0.10;;;0.10;;
15841;SDS011;8021;48.022;11.812;2023-04-25T08:39:24;0.00;;;0.00;;
15841;SDS011;8021;48.022;11.812;2023-04-25T08:42:18;0.00;;;0.00;;
15841;SDS011;8021;48.022;11.812;2023-04-25T08:44:47;0.08;;;0.05;;
15841;SDS011;8021;48.022;11.812;2023-04-25T08:47:15;0.00;;;0.00;;
15841;SDS011;8021;48.022;11.812;2023-04-25T08:49:49;0.00;;;0.00;;
15841;SDS011;8021;48.022;11.812;2023-04-25T08:52:19;0.00;;;0.00;;
15841;SDS011;8021;48.022;11.812;2023-04-25T08:54:48;0.00;;;0.00;;
15841;SDS011;8021;48.022;11.812;2023-04-25T08:57:17;0.00;;;0.00;;
15841;SDS011;8021;48.022;11.812;2023-04-25T08:59:48;0.10;;;0.10;;
15841;SDS011;8021;48.022;11.812;2023-04-25T09:02:16;0.00;;;0.00;;
15841;SDS011;8021;48.022;11.812;2023-04-25T09:04:48;0.10;;;0.10;;
15841;SDS011;8021;48.022;11.812;2023-04-25T09:07:16;0.10;;;0.10;;
15841;SDS011;8021;48.022;11.812;2023-04-25T09:09:47;0.10;;;0.10;;
15841;SDS011;8021;48.022;11.812;2023-04-25T09:12:17;0.10;;;0.10;;
15841;SDS011;8021;48.022;11.812;2023-04-25T09:17:39;0.10;;;0.10;;
15841;SDS011;8021;48.022;11.812;2023-04-25T09:20:12;0.20;;;0.20;;
15841;SDS011;8021;48.022;11.812;2023-04-25T09:22:40;0.10;;;0.10;;
15841;SDS011;8021;48.022;11.812;2023-04-25T09:25:09;0.20;;;0.20;;
15841;SDS011;8021;48.022;11.812;2023-04-25T09:27:48;0.13;;;0.13;;
15841;SDS011;8021;48.022;11.812;2023-04-25T09:30:28;0.20;;;0.20;;
15841;SDS011;8021;48.022;11.812;2023-04-25T09:33:06;0.20;;;0.17;;
15841;SDS011;8021;48.022;11.812;2023-04-25T09:35:36;0.20;;;0.20;;
15841;SDS011;8021;48.022;11.812;2023-04-25T09:38:09;0.10;;;0.10;;
15841;SDS011;8021;48.022;11.812;2023-04-25T09:40:59;0.10;;;0.10;;
15841;SDS011;8021;48.022;11.812;2023-04-25T09:43:39;0.20;;;0.20;;
15841;SDS011;8021;48.022;11.812;2023-04-25T09:46:12;0.20;;;0.20;;
15841;SDS011;8021;48.022;11.812;2023-04-25T09:48:49;0.20;;;0.20;;
15841;SDS011;8021;48.022;11.812;2023-04-25T09:51:24;0.30;;;0.20;;
15841;SDS011;8021;48.022;11.812;2023-04-25T09:53:53;0.20;;;0.20;;
15841;SDS011;8021;48.022;11.812;2023-04-25T09:56:28;0.20;;;0.20;;
15841;SDS011;8021;48.022;11.812;2023-04-25T09:58:56;0.20;;;0.20;;
15841;SDS011;8021;48.022;11.812;2023-04-25T10:01:24;0.28;;;0.20;;
15841;SDS011;8021;48.022;11.812;2023-04-25T10:04:06;0.30;;;0.20;;
15841;SDS011;8021;48.022;11.812;2023-04-25T10:06:45;0.20;;;0.20;;
15841;SDS011;8021;48.022;11.812;2023-04-25T10:09:16;0.20;;;0.20;;
15841;SDS011;8021;48.022;11.812;2023-04-25T10:11:47;0.30;;;0.30;;
15841;SDS011;8021;48.022;11.812;2023-04-25T10:14:15;0.20;;;0.20;;
15841;SDS011;8021;48.022;11.812;2023-04-25T10:16:43;0.20;;;0.20;;
15841;SDS011;8021;48.022;11.812;2023-04-25T10:19:12;0.30;;;0.20;;
15841;SDS011;8021;48.022;11.812;2023-04-25T10:21:43;0.20;;;0.20;;
15841;SDS011;8021;48.022;11.812;2023-04-25T10:24:11;0.20;;;0.20;;
15841;SDS011;8021;48.022;11.812;2023-04-25T10:26:39;0.20;;;0.20;;
15841;SDS011;8021;48.022;11.812;2023-04-25T10:29:07;0.30;;;0.20;;
15841;SDS011;8021;48.022;11.812;2023-04-25T10:31:44;0.20;;;0.10;;
15841;SDS011;8021;48.022;11.812;2023-04-25T10:34:13;0.20;;;0.20;;
15841;SDS011;8021;48.022;11.812;2023-04-25T10:36:40;0.20;;;0.20;;
15841;SDS011;8021;48.022;11.812;2023-04-25T10:39:08;0.30;;;0.20;;
15841;SDS011;8021;48.022;11.812;2023-04-25T10:44:22;0.20;;;0.20;;
15841;SDS011;8021;48.022;11.812;2023-04-25T10:46:50;0.20;;;0.20;;
15841;SDS011;8021;48.022;11.812;2023-04-25T10:49:29;0.20;;;0.20;;
15841;SDS011;8021;48.022;11.812;2023-04-25T10:52:16;0.20;;;0.20;;
15841;SDS011;8021;48.022;11.812;2023-04-25T10:54:47;0.30;;;0.30;;
15841;SDS011;8021;48.022;11.812;2023-04-25T10:57:30;0.30;;;0.30;;
15841;SDS011;8021;48.022;11.812;2023-04-25T10:59:59;0.20;;;0.20;;
15841;SDS011;8021;48.022;11.812;2023-04-25T11:02:27;0.25;;;0.20;;
15841;SDS011;8021;48.022;11.812;2023-04-25T11:04:56;0.20;;;0.20;;
15841;SDS011;8021;48.022;11.812;2023-04-25T11:07:26;0.20;;;0.15;;
15841;SDS011;8021;48.022;11.812;2023-04-25T11:09:56;0.20;;;0.20;;
15841;SDS011;8021;48.022;11.812;2023-04-25T11:12:24;0.22;;;0.20;;
15841;SDS011;8021;48.022;11.812;2023-04-25T11:14:57;0.20;;;0.20;;
15841;SDS011;8021;48.022;11.812;2023-04-25T11:17:25;0.20;;;0.20;;
15841;SDS011;8021;48.022;11.812;2023-04-25T11:19:53;0.20;;;0.20;;
15841;SDS011;8021;48.022;11.812;2023-04-25T11:22:23;0.20;;;0.17;;
15841;SDS011;8021;48.022;11.812;2023-04-25T11:24:50;0.20;;;0.20;;
15841;SDS011;8021;48.022;11.812;2023-04-25T11:27:18;0.20;;;0.20;;
15841;SDS011;8021;48.022;11.812;2023-04-25T11:29:46;0.30;;;0.30;;
15841;SDS011;8021;48.022;11.812;2023-04-25T11:32:15;0.20;;;0.20;;
15841;SDS011;8021;48.022;11.812;2023-04-25T11:34:44;0.30;;;0.30;;
15841;SDS011;8021;48.022;11.812;2023-04-25T11:37:12;0.20;;;0.20;;
15841;SDS011;8021;48.022;11.812;2023-04-25T11:39:44;0.22;;;0.20;;
15841;SDS011;8021;48.022;11.812;2023-04-25T11:42:12;0.30;;;0.30;;
15841;SDS011;8021;48.022;11.812;2023-04-25T11:44:40;0.30;;;0.25;;
15841;SDS011;8021;48.022;11.812;2023-04-25T11:47:07;0.30;;;0.30;;
15841;SDS011;8021;48.022;11.812;2023-04-25T11:49:35;0.30;;;0.30;;
15841;SDS011;8021;48.022;11.812;2023-04-25T11:52:03;0.40;;;0.40;;
15841;SDS011;8021;48.022;11.812;2023-04-25T11:54:34;0.30;;;0.30;;
15841;SDS011;8021;48.022;11.812;2023-04-25T11:57:04;0.40;;;0.40;;
15841;SDS011;8021;48.022;11.812;2023-04-25T11:59:31;0.35;;;0.35;;
15841;SDS011;8021;48.022;11.812;2023-04-25T12:01:59;0.30;;;0.30;;
15841;SDS011;8021;48.022;11.812;2023-04-25T12:04:29;0.40;;;0.40;;
15841;SDS011;8021;48.022;11.812;2023-04-25T12:06:57;0.30;;;0.30;;
15841;SDS011;8021;48.022;11.812;2023-04-25T12:09:27;0.30;;;0.30;;
15841;SDS011;8021;48.022;11.812;2023-04-25T12:11:56;0.40;;;0.40;;
15841;SDS011;8021;48.022;11.812;2023-04-25T12:14:26;0.40;;;0.40;;
15841;SDS011;8021;48.022;11.812;2023-04-25T12:16:54;0.30;;;0.22;;
15841;SDS011;8021;48.022;11.812;2023-04-25T12:19:23;0.30;;;0.30;;
15841;SDS011;8021;48.022;11.812;2023-04-25T12:21:52;0.30;;;0.30;;
15841;SDS011;8021;48.022;11.812;2023-04-25T12:24:25;0.40;;;0.40;;
15841;SDS011;8021;48.022;11.812;2023-04-25T12:26:55;0.30;;;0.30;;
15841;SDS011;8021;48.022;11.812;2023-04-25T12:29:28;0.30;;;0.30;;
15841;SDS011;8021;48.022;11.812;2023-04-25T12:32:03;0.30;;;0.30;;
15841;SDS011;8021;48.022;11.812;2023-04-25T12:34:32;0.30;;;0.30;;
15841;SDS011;8021;48.022;11.812;2023-04-25T12:37:01;0.45;;;0.45;;
15841;SDS011;8021;48.022;11.812;2023-04-25T12:39:29;0.30;;;0.30;;
15841;SDS011;8021;48.022;11.812;2023-04-25T12:41:57;0.30;;;0.28;;
15841;SDS011;8021;48.022;11.812;2023-04-25T12:44:25;0.30;;;0.30;;
15841;SDS011;8021;48.022;11.812;2023-04-25T12:46:54;0.30;;;0.30;;
15841;SDS011;8021;48.022;11.812;2023-04-25T12:49:21;0.30;;;0.30;;
15841;SDS011;8021;48.022;11.812;2023-04-25T12:51:49;0.35;;;0.35;;
15841;SDS011;8021;48.022;11.812;2023-04-25T12:54:17;0.30;;;0.30;;
15841;SDS011;8021;48.022;11.812;2023-04-25T12:56:45;0.30;;;0.30;;
15841;SDS011;8021;48.022;11.812;2023-04-25T12:59:13;0.30;;;0.30;;
15841;SDS011;8021;48.022;11.812;2023-04-25T13:01:41;0.30;;;0.30;;
15841;SDS011;8021;48.022;11.812;2023-04-25T13:04:10;0.20;;;0.20;;
15841;SDS011;8021;48.022;11.812;2023-04-25T13:06:38;0.20;;;0.20;;
15841;SDS011;8021;48.022;11.812;2023-04-25T13:09:05;0.30;;;0.20;;
15841;SDS011;8021;48.022;11.812;2023-04-25T13:11:33;0.25;;;0.20;;
15841;SDS011;8021;48.022;11.812;2023-04-25T13:14:01;0.20;;;0.20;;
15841;SDS011;8021;48.022;11.812;2023-04-25T13:16:29;0.20;;;0.20;;
15841;SDS011;8021;48.022;11.812;2023-04-25T13:18:56;0.25;;;0.20;;
15841;SDS011;8021;48.022;11.812;2023-04-25T13:21:25;0.30;;;0.30;;
15841;SDS011;8021;48.022;11.812;2023-04-25T13:23:53;0.20;;;0.20;;
15841;SDS011;8021;48.022;11.812;2023-04-25T13:26:21;0.20;;;0.20;;
15841;SDS011;8021;48.022;11.812;2023-04-25T13:28:48;0.20;;;0.20;;
15841;SDS011;8021;48.022;11.812;2023-04-25T13:31:15;0.30;;;0.20;;
15841;SDS011;8021;48.022;11.812;2023-04-25T13:33:43;0.30;;;0.20;;
15841;SDS011;8021;48.022;11.812;2023-04-25T13:36:10;0.30;;;0.30;;
15841;SDS011;8021;48.022;11.812;2023-04-25T13:38:39;0.20;;;0.20;;
15841;SDS011;8021;48.022;11.812;2023-04-25T13:41:09;0.30;;;0.20;;
15841;SDS011;8021;48.022;11.812;2023-04-25T13:43:39;0.30;;;0.22;;
15841;SDS011;8021;48.022;11.812;2023-04-25T13:46:07;0.20;;;0.20;;
15841;SDS011;8021;48.022;11.812;2023-04-25T13:48:50;0.30;;;0.28;;
15841;SDS011;8021;48.022;11.812;2023-04-25T13:51:25;0.30;;;0.20;;
15841;SDS011;8021;48.022;11.812;2023-04-25T13:53:54;0.30;;;0.30;;
15841;SDS011;8021;48.022;11.812;2023-04-25T13:56:21;0.30;;;0.30;;
15841;SDS011;8021;48.022;11.812;2023-04-25T13:58:49;0.30;;;0.30;;
15841;SDS011;8021;48.022;11.812;2023-04-25T14:01:17;0.30;;;0.30;;
15841;SDS011;8021;48.022;11.812;2023-04-25T14:03:46;0.38;;;0.38;;
15841;SDS011;8021;48.022;11.812;2023-04-25T14:06:14;0.30;;;0.28;;
15841;SDS011;8021;48.022;11.812;2023-04-25T14:08:48;0.30;;;0.30;;
15841;SDS011;8021;48.022;11.812;2023-04-25T14:11:17;0.30;;;0.30;;
15841;SDS011;8021;48.022;11.812;2023-04-25T14:13:45;0.30;;;0.30;;
15841;SDS011;8021;48.022;11.812;2023-04-25T14:16:13;0.25;;;0.20;;
15841;SDS011;8021;48.022;11.812;2023-04-25T14:18:41;0.30;;;0.30;;
15841;SDS011;8021;48.022;11.812;2023-04-25T14:21:08;0.30;;;0.20;;
15841;SDS011;8021;48.022;11.812;2023-04-25T14:23:36;0.30;;;0.30;;
15841;SDS011;8021;48.022;11.812;2023-04-25T14:26:04;0.30;;;0.30;;
15841;SDS011;8021;48.022;11.812;2023-04-25T14:28:33;0.38;;;0.38;;
15841;SDS011;8021;48.022;11.812;2023-04-25T14:31:00;0.30;;;0.30;;
15841;SDS011;8021;48.022;11.812;2023-04-25T14:33:28;0.30;;;0.30;;
15841;SDS011;8021;48.022;11.812;2023-04-25T14:35:55;0.30;;;0.30;;
15841;SDS011;8021;48.022;11.812;2023-04-25T14:38:23;0.30;;;0.30;;
15841;SDS011;8021;48.022;11.812;2023-04-25T14:40:51;0.40;;;0.40;;
15841;SDS011;8021;48.022;11.812;2023-04-25T14:43:20;0.40;;;0.40;;
15841;SDS011;8021;48.022;11.812;2023-04-25T14:45:48;0.30;;;0.30;;
15841;SDS011;8021;48.022;11.812;2023-04-25T14:48:16;0.30;;;0.30;;
15841;SDS011;8021;48.022;11.812;2023-04-25T14:50:45;0.30;;;0.30;;
15841;SDS011;8021;48.022;11.812;2023-04-25T14:53:13;0.40;;;0.40;;
15841;SDS011;8021;48.022;11.812;2023-04-25T14:55:40;0.32;;;0.32;;
15841;SDS011;8021;48.022;11.812;2023-04-25T14:58:08;0.38;;;0.38;;
15841;SDS011;8021;48.022;11.812;2023-04-25T15:00:36;0.40;;;0.40;;
15841;SDS011;8021;48.022;11.812;2023-04-25T15:03:05;0.30;;;0.30;;
15841;SDS011;8021;48.022;11.812;2023-04-25T15:05:34;0.30;;;0.30;;
15841;SDS011;8021;48.022;11.812;2023-04-25T15:08:01;0.30;;;0.30;;
15841;SDS011;8021;48.022;11.812;2023-04-25T15:10:29;0.40;;;0.40;;
15841;SDS011;8021;48.022;11.812;2023-04-25T15:12:56;0.30;;;0.30;;
15841;SDS011;8021;48.022;11.812;2023-04-25T15:15:24;0.40;;;0.40;;